Time;durP1;ratioP1;P1;durP2;ratioP2;P2;SDS_P1;SDS_P2;PMS_P1;PMS_P2;Temp;Humidity;BMP_temperature;BMP_pressure;BME280_temperature;BME280_humidity;BME280_pressure;Samples;Min_cycle;Max_cycle;Signal;HPM_P1;HPM_P2
2023/09/22 00:00:32;;;;;;;14.35;12.85;;;17.40;99.90;;;;;;5047629;28;20305;-83
2023/09/22 00:02:59;;;;;;;13.27;12.13;;;17.30;99.90;;;;;;5051695;28;20208;-80
2023/09/22 00:05:26;;;;;;;14.20;12.80;;;17.30;99.90;;;;;;5054182;28;20553;-81
2023/09/22 00:07:53;;;;;;;14.53;10.23;;;17.30;99.90;;;;;;5049671;28;20537;-82
2023/09/22 00:10:20;;;;;;;13.70;12.40;;;17.30;99.90;;;;;;5056263;28;20461;-84
2023/09/22 00:12:48;;;;;;;12.17;11.07;;;17.30;99.90;;;;;;5053228;28;20469;-83
2023/09/22 00:15:15;;;;;;;12.57;11.57;;;17.20;99.90;;;;;;5063442;28;20514;-84
2023/09/22 00:17:43;;;;;;;13.20;12.10;;;17.30;99.90;;;;;;5050494;28;20434;-83
2023/09/22 00:20:13;;;;;;;13.23;12.10;;;17.20;99.90;;;;;;5047335;28;20538;-84
2023/09/22 00:22:40;;;;;;;12.35;11.25;;;17.30;99.90;;;;;;5057461;28;20485;-83
2023/09/22 00:25:09;;;;;;;13.00;11.73;;;17.20;99.90;;;;;;5059756;28;20236;-83
2023/09/22 00:27:35;;;;;;;12.10;11.00;;;17.20;99.90;;;;;;5060080;28;20463;-84
2023/09/22 00:30:05;;;;;;;10.35;9.35;;;17.10;99.90;;;;;;5049233;28;21038;-82
2023/09/22 00:32:32;;;;;;;13.53;12.33;;;17.20;99.90;;;;;;5049640;28;20250;-82
2023/09/22 00:34:59;;;;;;;12.67;11.47;;;17.10;99.90;;;;;;5047837;28;20820;-82
2023/09/22 00:37:25;;;;;;;12.30;11.17;;;17.00;99.90;;;;;;5055699;28;20448;-84
2023/09/22 00:39:52;;;;;;;13.57;12.27;;;17.00;99.90;;;;;;5057821;28;20427;-84
2023/09/22 00:42:19;;;;;;;12.97;11.73;;;17.00;99.90;;;;;;5051016;28;20465;-82
2023/09/22 00:44:46;;;;;;;12.93;11.80;;;16.90;99.90;;;;;;5053912;28;20453;-84
2023/09/22 00:47:15;;;;;;;13.90;12.63;;;16.90;99.90;;;;;;5056000;28;20222;-84
2023/09/22 00:49:43;;;;;;;12.45;11.35;;;16.80;99.90;;;;;;5052186;28;20208;-82
2023/09/22 00:52:10;;;;;;;14.18;12.98;;;16.80;99.90;;;;;;5052187;28;20215;-84
2023/09/22 00:54:37;;;;;;;12.60;11.37;;;16.70;99.90;;;;;;5062676;28;20204;-84
2023/09/22 00:57:04;;;;;;;12.77;11.53;;;16.80;99.90;;;;;;5058974;28;20461;-85
2023/09/22 00:59:32;;;;;;;13.57;12.27;;;16.80;99.90;;;;;;5051844;28;20490;-84
2023/09/22 01:01:59;;;;;;;13.55;12.35;;;16.70;99.90;;;;;;5059277;28;20512;-84
2023/09/22 01:04:27;;;;;;;13.75;12.20;;;16.90;99.90;;;;;;5059774;28;20245;-85
2023/09/22 01:06:55;;;;;;;14.35;13.05;;;16.80;99.90;;;;;;5042090;28;20223;-83
2023/09/22 01:09:23;;;;;;;12.73;11.63;;;16.70;99.90;;;;;;5051444;28;20203;-84
2023/09/22 01:11:50;;;;;;;12.77;11.52;;;16.60;99.90;;;;;;5050870;28;20218;-84
2023/09/22 01:14:16;;;;;;;12.17;11.07;;;16.60;99.90;;;;;;5054698;28;20230;-83
2023/09/22 01:16:44;;;;;;;12.90;11.50;;;16.60;99.90;;;;;;5049731;28;20481;-84
2023/09/22 01:19:14;;;;;;;13.70;12.50;;;16.70;99.90;;;;;;5051747;28;20485;-82
2023/09/22 01:21:42;;;;;;;10.03;9.07;;;16.70;99.90;;;;;;5044180;28;20481;-83
2023/09/22 01:24:10;;;;;;;13.93;12.63;;;16.70;99.90;;;;;;5057305;28;20514;-83
2023/09/22 01:26:38;;;;;;;13.82;12.40;;;16.60;99.90;;;;;;5062973;28;20551;-82
2023/09/22 01:29:05;;;;;;;13.20;11.98;;;16.60;99.90;;;;;;5059308;28;20217;-83
2023/09/22 01:31:33;;;;;;;14.18;12.82;;;16.60;99.90;;;;;;5055032;28;20231;-84
2023/09/22 01:34:01;;;;;;;14.20;12.80;;;16.70;99.90;;;;;;5049553;28;20202;-82
2023/09/22 01:36:28;;;;;;;15.60;13.88;;;16.50;99.90;;;;;;5047719;28;20242;-85
2023/09/22 01:38:57;;;;;;;14.88;13.48;;;16.60;99.90;;;;;;5048109;28;20226;-80
2023/09/22 01:41:24;;;;;;;15.68;14.13;;;16.50;99.90;;;;;;5044735;28;20230;-83
2023/09/22 01:43:51;;;;;;;14.05;12.82;;;16.60;99.90;;;;;;5060678;28;20220;-82
2023/09/22 01:46:18;;;;;;;15.13;11.10;;;16.60;99.90;;;;;;5052485;28;20360;-84
2023/09/22 01:48:45;;;;;;;14.27;11.18;;;16.70;99.90;;;;;;5063641;28;20274;-82
2023/09/22 01:51:12;;;;;;;15.02;13.50;;;16.80;99.90;;;;;;5057275;28;20311;-85
2023/09/22 01:53:39;;;;;;;12.07;10.88;;;16.80;99.90;;;;;;5044528;28;20230;-83
2023/09/22 01:56:07;;;;;;;12.17;10.50;;;16.80;99.90;;;;;;5048820;28;20191;-84
2023/09/22 01:58:34;;;;;;;10.90;9.90;;;16.90;99.90;;;;;;5051799;28;20832;-83
2023/09/22 02:01:01;;;;;;;11.70;10.53;;;16.90;99.90;;;;;;5049568;28;20472;-84
2023/09/22 02:03:29;;;;;;;12.20;10.98;;;16.90;99.90;;;;;;5053755;28;20450;-83
2023/09/22 02:05:57;;;;;;;11.53;10.43;;;17.00;99.90;;;;;;5059172;28;20214;-83
2023/09/22 02:08:24;;;;;;;11.93;10.87;;;17.00;99.90;;;;;;5050906;28;20828;-82
2023/09/22 02:10:51;;;;;;;12.35;11.25;;;17.00;99.90;;;;;;5051265;28;20584;-83
2023/09/22 02:13:19;;;;;;;12.27;10.63;;;17.00;99.90;;;;;;5050676;28;20208;-82
2023/09/22 02:15:46;;;;;;;15.82;13.30;;;16.90;99.90;;;;;;5056308;28;20197;-83
2023/09/22 02:18:13;;;;;;;13.90;12.40;;;16.90;99.90;;;;;;5054935;28;20238;-82
2023/09/22 02:20:42;;;;;;;16.23;14.63;;;16.80;99.90;;;;;;5055765;28;20482;-82
2023/09/22 02:23:08;;;;;;;15.48;13.90;;;16.80;99.90;;;;;;5053566;28;20485;-84
2023/09/22 02:25:35;;;;;;;12.50;11.20;;;16.80;99.90;;;;;;5047810;28;20322;-81
2023/09/22 02:28:03;;;;;;;13.50;12.10;;;16.80;99.90;;;;;;5047179;28;20211;-82
2023/09/22 02:30:31;;;;;;;13.45;12.10;;;16.80;99.90;;;;;;5046431;28;20292;-83
2023/09/22 02:32:58;;;;;;;17.35;12.95;;;16.90;99.90;;;;;;5047483;28;20200;-83
2023/09/22 02:35:25;;;;;;;14.32;12.93;;;16.80;99.90;;;;;;5049197;28;20207;-82
2023/09/22 02:37:52;;;;;;;33.05;22.27;;;16.70;99.90;;;;;;5048125;28;20287;-83
2023/09/22 02:40:19;;;;;;;13.75;12.45;;;16.60;99.90;;;;;;5046333;28;20210;-84
2023/09/22 02:42:46;;;;;;;11.68;10.48;;;16.60;99.90;;;;;;5054715;28;20261;-83
2023/09/22 02:45:13;;;;;;;14.50;11.93;;;16.70;99.90;;;;;;5045862;28;20204;-84
2023/09/22 02:47:42;;;;;;;13.25;11.93;;;16.70;99.90;;;;;;5062794;28;20466;-84
2023/09/22 02:50:10;;;;;;;14.23;11.98;;;16.70;99.90;;;;;;5040806;28;20285;-81
2023/09/22 02:52:38;;;;;;;12.20;11.00;;;16.70;99.90;;;;;;5052499;28;20222;-83
2023/09/22 02:55:07;;;;;;;15.38;12.65;;;16.80;99.90;;;;;;5045222;28;20213;-80
2023/09/22 02:57:35;;;;;;;14.45;11.82;;;16.70;99.90;;;;;;5048427;28;20621;-82
2023/09/22 03:00:07;;;;;;;13.98;11.63;;;16.60;99.90;;;;;;5050821;28;20227;-83
2023/09/22 03:02:34;;;;;;;14.50;11.85;;;16.60;99.90;;;;;;5050595;28;20673;-82
2023/09/22 03:05:06;;;;;;;13.27;11.15;;;16.60;99.90;;;;;;5040388;28;20209;-81
2023/09/22 03:07:33;;;;;;;15.50;13.10;;;16.70;99.90;;;;;;5053032;28;20217;-84
2023/09/22 03:10:00;;;;;;;13.40;12.02;;;16.60;99.90;;;;;;5039246;28;20268;-83
2023/09/22 03:12:26;;;;;;;16.10;12.05;;;16.60;99.90;;;;;;5052684;28;20238;-83
2023/09/22 03:14:53;;;;;;;14.03;11.80;;;16.60;99.90;;;;;;5055211;28;20262;-83
2023/09/22 03:17:20;;;;;;;13.30;12.00;;;16.60;99.90;;;;;;5043410;28;20447;-83
2023/09/22 03:19:47;;;;;;;14.13;12.60;;;16.60;99.90;;;;;;5054316;28;20482;-83
2023/09/22 03:22:15;;;;;;;12.37;11.17;;;16.50;99.90;;;;;;5047659;28;20238;-84
2023/09/22 03:24:46;;;;;;;14.17;12.07;;;16.60;99.90;;;;;;5042510;28;20518;-82
2023/09/22 03:27:13;;;;;;;16.40;11.95;;;16.60;99.90;;;;;;5049094;28;20584;-83
2023/09/22 03:29:39;;;;;;;13.18;11.85;;;16.70;99.90;;;;;;5050341;28;20201;-84
2023/09/22 03:32:06;;;;;;;12.25;10.95;;;16.60;99.90;;;;;;5044667;28;20277;-82
2023/09/22 03:34:33;;;;;;;14.70;13.15;;;16.50;99.90;;;;;;5044522;28;20199;-83
2023/09/22 03:37:00;;;;;;;17.33;13.73;;;16.60;99.90;;;;;;5060563;28;20207;-82
2023/09/22 03:39:30;;;;;;;16.03;11.50;;;16.60;99.90;;;;;;5055814;28;20434;-82
2023/09/22 03:41:57;;;;;;;13.97;12.47;;;16.60;99.90;;;;;;5057324;28;20480;-84
2023/09/22 03:44:25;;;;;;;14.10;12.60;;;16.60;99.90;;;;;;5052205;28;20529;-82
2023/09/22 03:46:52;;;;;;;14.38;12.43;;;16.60;99.90;;;;;;5047356;28;20488;-83
2023/09/22 03:49:19;;;;;;;13.85;11.50;;;16.50;99.90;;;;;;5058997;28;20206;-83
2023/09/22 03:51:45;;;;;;;13.57;11.10;;;16.50;99.90;;;;;;5050318;28;20230;-82
2023/09/22 03:54:12;;;;;;;14.35;12.85;;;16.50;99.90;;;;;;5055700;28;20213;-84
2023/09/22 03:56:40;;;;;;;14.88;12.80;;;16.50;99.90;;;;;;5060113;28;20201;-85
2023/09/22 03:59:09;;;;;;;16.40;11.27;;;16.50;99.90;;;;;;5055640;28;20202;-83
2023/09/22 04:01:37;;;;;;;14.93;12.90;;;16.40;99.90;;;;;;5059606;28;20198;-83
2023/09/22 04:04:04;;;;;;;15.25;12.98;;;16.40;99.90;;;;;;5053909;28;20277;-83
2023/09/22 04:06:31;;;;;;;12.85;11.45;;;16.40;99.90;;;;;;5042496;28;20241;-81
2023/09/22 04:08:58;;;;;;;12.40;11.10;;;16.50;99.90;;;;;;5061007;28;20230;-83
2023/09/22 04:11:25;;;;;;;14.35;12.75;;;16.50;99.90;;;;;;5053094;28;20222;-81
2023/09/22 04:14:21;;;;;;;13.60;12.20;;;16.50;99.90;;;;;;5028079;28;20245;-81
2023/09/22 04:16:48;;;;;;;15.40;13.90;;;16.50;99.90;;;;;;5047820;28;20276;-81
2023/09/22 04:19:15;;;;;;;14.68;13.18;;;16.50;99.90;;;;;;5064774;28;20428;-80
2023/09/22 04:21:47;;;;;;;14.30;12.48;;;16.40;99.90;;;;;;5057864;28;20271;-81
2023/09/22 04:24:15;;;;;;;13.68;12.30;;;16.50;99.90;;;;;;5053391;28;20194;-81
2023/09/22 04:26:43;;;;;;;13.82;12.45;;;16.30;99.90;;;;;;5056399;28;20213;-81
2023/09/22 04:29:10;;;;;;;13.60;12.15;;;16.30;99.90;;;;;;5052209;28;20229;-83
2023/09/22 04:31:39;;;;;;;14.88;12.45;;;16.30;99.90;;;;;;5063419;28;20236;-83
2023/09/22 04:34:06;;;;;;;13.13;11.82;;;16.30;99.90;;;;;;5059421;28;20239;-82
2023/09/22 04:36:33;;;;;;;12.43;11.23;;;16.20;99.90;;;;;;5055538;28;20241;-84
2023/09/22 04:39:00;;;;;;;12.60;11.30;;;16.20;99.90;;;;;;5041557;28;20265;-83
2023/09/22 04:41:27;;;;;;;11.57;10.27;;;16.20;99.90;;;;;;5056282;28;20624;-80
2023/09/22 04:43:54;;;;;;;15.10;11.68;;;16.30;99.90;;;;;;5053546;28;20474;-84
2023/09/22 04:46:22;;;;;;;12.45;11.25;;;16.30;99.90;;;;;;5057036;28;20222;-82
2023/09/22 04:48:51;;;;;;;14.75;13.23;;;16.30;99.90;;;;;;5054546;28;20211;-85
2023/09/22 04:51:19;;;;;;;14.45;13.00;;;16.30;99.90;;;;;;5055318;28;20225;-85
2023/09/22 04:53:47;;;;;;;12.70;11.38;;;16.30;99.90;;;;;;5055926;28;20231;-85
2023/09/22 04:56:14;;;;;;;15.73;12.10;;;16.30;99.90;;;;;;5055558;28;20203;-84
2023/09/22 04:58:41;;;;;;;13.55;12.25;;;16.20;99.90;;;;;;5052865;28;20297;-84
2023/09/22 05:01:08;;;;;;;14.87;13.40;;;16.20;99.90;;;;;;5052678;28;20231;-83
2023/09/22 05:03:35;;;;;;;11.10;9.90;;;16.20;99.90;;;;;;5056614;28;20450;-84
2023/09/22 05:06:09;;;;;;;13.55;12.25;;;16.40;99.90;;;;;;5057775;28;20429;-84
2023/09/22 05:08:37;;;;;;;13.68;12.38;;;16.40;99.90;;;;;;5058977;28;20196;-83
2023/09/22 05:11:05;;;;;;;12.10;10.95;;;16.20;99.90;;;;;;5061339;28;20307;-84
2023/09/22 05:13:32;;;;;;;12.93;11.65;;;16.20;99.90;;;;;;5040639;28;20292;-83
2023/09/22 05:16:06;;;;;;;13.95;11.48;;;16.20;99.90;;;;;;5027078;28;20237;-86
2023/09/22 05:18:34;;;;;;;13.15;11.70;;;16.20;99.90;;;;;;5041517;28;20290;-86
2023/09/22 05:21:02;;;;;;;11.98;10.75;;;16.10;99.90;;;;;;5055444;28;20248;-85
2023/09/22 05:23:32;;;;;;;12.43;11.32;;;16.10;99.90;;;;;;5045051;28;20642;-84
2023/09/22 05:25:59;;;;;;;11.90;10.80;;;16.10;99.90;;;;;;5041334;28;20235;-83
2023/09/22 05:28:26;;;;;;;10.98;9.90;;;16.10;99.90;;;;;;5044193;28;20315;-83
2023/09/22 05:30:53;;;;;;;12.00;10.20;;;16.00;99.90;;;;;;5045992;28;20232;-85
2023/09/22 05:33:20;;;;;;;11.68;9.38;;;16.00;99.90;;;;;;5047590;28;20212;-85
2023/09/22 05:35:47;;;;;;;12.73;10.32;;;16.00;99.90;;;;;;5057044;28;20212;-84
2023/09/22 05:38:14;;;;;;;11.50;10.38;;;15.90;99.90;;;;;;5045378;28;20259;-84
2023/09/22 05:40:43;;;;;;;11.00;9.90;;;16.00;99.90;;;;;;5055903;28;20226;-84
2023/09/22 05:43:12;;;;;;;10.98;9.88;;;16.00;99.90;;;;;;5044433;28;20201;-85
2023/09/22 05:45:39;;;;;;;10.50;9.50;;;16.00;99.90;;;;;;5047475;28;20215;-85
2023/09/22 05:48:07;;;;;;;9.38;8.48;;;15.90;99.90;;;;;;5039411;28;20231;-84
2023/09/22 05:50:35;;;;;;;12.27;10.73;;;16.00;99.90;;;;;;5040725;28;20221;-83
2023/09/22 05:53:35;;;;;;;10.43;9.38;;;16.00;99.90;;;;;;5041439;28;20251;-86
2023/09/22 05:56:22;;;;;;;10.50;9.40;;;15.80;99.90;;;;;;5049542;28;20233;-83
2023/09/22 05:58:50;;;;;;;12.50;11.13;;;15.90;99.90;;;;;;5058208;28;20230;-86
2023/09/22 06:01:19;;;;;;;11.85;10.27;;;15.90;99.90;;;;;;5045491;28;20264;-84
2023/09/22 06:03:47;;;;;;;10.68;9.45;;;15.90;99.90;;;;;;5049137;28;20206;-82
2023/09/22 06:06:16;;;;;;;12.65;11.25;;;15.80;99.90;;;;;;5058993;28;20269;-85
2023/09/22 06:08:45;;;;;;;10.70;9.60;;;15.80;99.90;;;;;;5056304;28;20201;-83
2023/09/22 06:11:12;;;;;;;13.65;9.23;;;15.80;99.90;;;;;;5055585;28;20220;-84
2023/09/22 06:13:42;;;;;;;11.75;10.65;;;15.90;99.90;;;;;;5056835;28;20205;-86
2023/09/22 06:16:09;;;;;;;10.68;9.57;;;16.00;99.90;;;;;;5047942;28;20237;-86
2023/09/22 06:18:42;;;;;;;10.38;9.35;;;16.00;99.90;;;;;;5054233;28;20270;-84
2023/09/22 06:21:13;;;;;;;11.95;9.98;;;16.00;99.90;;;;;;5046115;28;20235;-84
2023/09/22 06:23:40;;;;;;;10.13;8.75;;;16.00;99.90;;;;;;5049849;28;20229;-86
2023/09/22 06:26:10;;;;;;;11.60;9.88;;;16.10;99.90;;;;;;5052406;28;20193;-83
2023/09/22 06:28:50;;;;;;;9.98;8.98;;;16.20;99.90;;;;;;5046436;28;20228;-86
2023/09/22 06:32:34;;;;;;;9.85;8.13;;;16.20;99.90;;;;;;5066245;28;20237;-85
2023/09/22 06:35:01;;;;;;;14.23;8.80;;;16.40;99.90;;;;;;5051790;28;20229;-83
2023/09/22 06:37:28;;;;;;;11.38;8.45;;;16.40;99.90;;;;;;5052816;28;20445;-85
2023/09/22 06:39:58;;;;;;;9.02;7.95;;;16.40;99.90;;;;;;5049499;28;20209;-83
2023/09/22 06:42:25;;;;;;;9.90;8.90;;;16.50;99.90;;;;;;5048550;28;20262;-83
2023/09/22 06:44:53;;;;;;;11.90;9.27;;;16.50;99.90;;;;;;5041039;28;20198;-85
2023/09/22 06:47:20;;;;;;;9.73;8.30;;;16.40;99.90;;;;;;5054727;28;20234;-85
2023/09/22 06:49:48;;;;;;;10.25;9.15;;;16.50;99.90;;;;;;5053888;28;20460;-85
2023/09/22 06:52:15;;;;;;;10.10;9.07;;;16.50;99.90;;;;;;5064602;28;20204;-84
2023/09/22 06:54:42;;;;;;;10.13;8.43;;;16.50;99.90;;;;;;5059530;28;20204;-84
2023/09/22 06:57:10;;;;;;;9.27;7.00;;;16.50;99.90;;;;;;5070833;28;20445;-85
2023/09/22 06:59:37;;;;;;;11.30;8.10;;;16.60;99.90;;;;;;5056853;28;20211;-85
2023/09/22 07:02:13;;;;;;;11.20;8.60;;;16.80;99.90;;;;;;5043757;28;20474;-84
2023/09/22 07:04:40;;;;;;;8.05;6.45;;;16.60;99.90;;;;;;5058536;28;20500;-84
2023/09/22 07:07:10;;;;;;;9.37;7.70;;;16.50;99.90;;;;;;5058242;28;20254;-85
2023/09/22 07:09:38;;;;;;;9.03;8.10;;;16.50;99.90;;;;;;5060604;28;20492;-86
2023/09/22 07:12:05;;;;;;;9.73;7.88;;;16.50;99.90;;;;;;5055548;28;20523;-84
2023/09/22 07:14:37;;;;;;;10.07;7.63;;;16.40;99.90;;;;;;5056488;28;20227;-88
2023/09/22 07:17:04;;;;;;;10.20;8.02;;;16.40;99.90;;;;;;5058455;28;20206;-86
2023/09/22 07:19:34;;;;;;;9.50;8.00;;;16.30;99.90;;;;;;5054467;28;20275;-87
2023/09/22 07:22:02;;;;;;;12.57;8.68;;;16.20;99.90;;;;;;5057260;28;20287;-86
2023/09/22 07:24:29;;;;;;;7.60;6.85;;;16.10;99.90;;;;;;5054230;28;20204;-87
2023/09/22 07:40:35;;;;;;;7.60;6.90;;;16.70;99.90;;;;;;4885277;29;20484;-86
2023/09/22 07:43:09;;;;;;;9.67;8.10;;;16.80;99.90;;;;;;5042911;28;20457;-87
2023/09/22 07:45:41;;;;;;;8.37;6.87;;;17.00;99.90;;;;;;5058822;28;20542;-86
2023/09/22 07:50:56;;;;;;;8.57;5.97;;;17.80;99.90;;;;;;5046191;28;20458;-86
2023/09/22 07:53:33;;;;;;;7.60;5.60;;;18.90;99.90;;;;;;5052792;28;20437;-86
2023/09/22 07:56:01;;;;;;;6.23;5.67;;;20.00;99.90;;;;;;5051665;28;20446;-86
2023/09/22 07:58:28;;;;;;;7.90;5.17;;;20.70;99.90;;;;;;5046745;28;20457;-83
2023/09/22 08:00:58;;;;;;;6.37;5.77;;;21.30;99.90;;;;;;5037401;28;20467;-84
2023/09/22 08:03:26;;;;;;;4.90;4.40;;;21.40;99.90;;;;;;5046152;28;20474;-86
2023/09/22 08:05:53;;;;;;;5.40;4.20;;;20.70;99.90;;;;;;5045284;28;20512;-84
2023/09/22 08:08:20;;;;;;;11.90;6.17;;;20.60;99.90;;;;;;5052402;28;20482;-85
2023/09/22 08:10:48;;;;;;;9.23;5.07;;;20.00;99.90;;;;;;5041014;28;20494;-84
2023/09/22 08:13:15;;;;;;;6.80;5.07;;;19.30;99.90;;;;;;5055420;28;20534;-83
2023/09/22 08:15:42;;;;;;;12.27;6.60;;;19.00;99.90;;;;;;5052677;28;20463;-84
2023/09/22 08:18:10;;;;;;;10.00;5.60;;;18.70;99.90;;;;;;5055564;28;20505;-84
2023/09/22 08:20:38;;;;;;;6.80;4.70;;;18.20;99.90;;;;;;5043940;28;20546;-83
2023/09/22 08:23:05;;;;;;;6.23;4.73;;;18.30;99.90;;;;;;5049380;28;20447;-83
2023/09/22 08:25:32;;;;;;;9.40;4.80;;;18.70;99.90;;;;;;5047298;28;20908;-83
2023/09/22 08:28:00;;;;;;;7.23;3.77;;;19.00;99.90;;;;;;5057660;28;20482;-84
2023/09/22 08:30:27;;;;;;;8.20;5.40;;;19.50;99.90;;;;;;5055722;28;20554;-84
2023/09/22 08:32:54;;;;;;;21.27;5.63;;;20.30;99.90;;;;;;5044529;28;20541;-83
2023/09/22 08:35:21;;;;;;;5.23;4.73;;;20.90;99.90;;;;;;5047289;28;20450;-84
2023/09/22 08:37:49;;;;;;;6.60;4.30;;;22.00;99.90;;;;;;5047742;28;20470;-86
2023/09/22 08:40:17;;;;;;;7.13;4.83;;;22.60;99.90;;;;;;5051993;28;20565;-83
2023/09/22 08:42:45;;;;;;;9.20;5.37;;;22.80;99.90;;;;;;5049507;28;20490;-83
2023/09/22 08:45:14;;;;;;;12.20;5.90;;;23.00;99.80;;;;;;5045195;28;20453;-83
2023/09/22 08:47:43;;;;;;;5.63;4.70;;;22.00;99.90;;;;;;5058437;28;20521;-81
2023/09/22 08:50:19;;;;;;;6.57;5.83;;;21.00;99.90;;;;;;5055514;28;20568;-82
2023/09/22 08:52:49;;;;;;;6.87;5.90;;;20.60;99.90;;;;;;5040294;28;20477;-83
2023/09/22 08:55:23;;;;;;;6.37;5.77;;;20.30;99.90;;;;;;5036682;28;20463;-83
2023/09/22 08:57:53;;;;;;;7.43;5.73;;;19.90;99.90;;;;;;5038555;28;20456;-83
2023/09/22 09:00:25;;;;;;;7.50;5.77;;;19.60;99.90;;;;;;5051559;28;20958;-84
2023/09/22 09:02:52;;;;;;;8.80;6.63;;;19.00;99.90;;;;;;5049195;28;20454;-82
2023/09/22 09:05:20;;;;;;;11.53;5.70;;;18.70;99.90;;;;;;5051814;28;20454;-84
2023/09/22 09:07:47;;;;;;;7.20;5.50;;;18.60;99.90;;;;;;5048091;28;20478;-84
2023/09/22 09:10:29;;;;;;;8.40;5.57;;;18.40;99.90;;;;;;5049293;28;20975;-82
2023/09/22 09:12:56;;;;;;;6.90;5.53;;;18.30;99.90;;;;;;5049467;28;20446;-84
2023/09/22 09:15:29;;;;;;;7.53;6.83;;;18.20;99.90;;;;;;5051654;28;20443;-84
2023/09/22 09:18:04;;;;;;;8.60;7.80;;;18.00;99.90;;;;;;5056369;28;20457;-84
2023/09/22 09:20:36;;;;;;;6.57;6.00;;;18.00;99.90;;;;;;5048101;28;20481;-85
2023/09/22 09:23:17;;;;;;;10.13;6.80;;;18.00;99.90;;;;;;5047598;28;20451;-84
2023/09/22 09:25:45;;;;;;;10.10;7.63;;;17.90;99.90;;;;;;5048137;28;20445;-83
2023/09/22 09:28:15;;;;;;;5.80;5.27;;;17.80;99.90;;;;;;5043158;28;20504;-82
2023/09/22 09:30:59;;;;;;;8.37;6.43;;;17.80;99.90;;;;;;5055175;28;20541;-84
2023/09/22 09:33:28;;;;;;;7.67;7.00;;;17.80;99.90;;;;;;5047807;28;20903;-85
2023/09/22 09:36:00;;;;;;;6.60;5.80;;;17.80;99.90;;;;;;5039634;28;20468;-83
2023/09/22 09:38:51;;;;;;;7.80;5.30;;;17.70;99.90;;;;;;5042765;28;20524;-85
2023/09/22 09:41:29;;;;;;;7.00;5.87;;;17.90;99.90;;;;;;5052332;28;20510;-84
2023/09/22 09:43:58;;;;;;;11.33;5.93;;;18.10;99.90;;;;;;5053898;28;20526;-85
2023/09/22 09:46:29;;;;;;;6.90;5.80;;;18.20;99.90;;;;;;5053047;28;20470;-84
2023/09/22 09:48:56;;;;;;;8.07;5.97;;;18.30;99.90;;;;;;5052761;28;20541;-84
2023/09/22 09:51:24;;;;;;;6.37;5.70;;;18.60;99.90;;;;;;5059413;28;20454;-85
2023/09/22 09:53:55;;;;;;;8.30;5.37;;;18.50;99.90;;;;;;5057844;28;20451;-84
2023/09/22 09:56:26;;;;;;;6.90;5.00;;;18.40;99.90;;;;;;5040671;28;20537;-81
2023/09/22 09:58:54;;;;;;;8.47;5.87;;;18.40;99.90;;;;;;5054751;28;20454;-84
2023/09/22 10:01:22;;;;;;;5.70;5.10;;;18.50;99.90;;;;;;5044396;28;20467;-83
2023/09/22 10:03:51;;;;;;;9.80;5.90;;;18.40;99.90;;;;;;5040232;28;20530;-83
2023/09/22 10:06:20;;;;;;;7.07;4.87;;;18.70;99.90;;;;;;5043752;28;20458;-84
2023/09/22 10:08:47;;;;;;;4.90;3.70;;;18.70;99.90;;;;;;5039793;28;20485;-83
2023/09/22 10:11:15;;;;;;;4.20;3.60;;;18.80;99.90;;;;;;5055689;28;20466;-82
2023/09/22 10:13:43;;;;;;;5.60;5.10;;;19.00;99.90;;;;;;5049251;28;21024;-83
2023/09/22 10:16:10;;;;;;;4.63;3.27;;;19.00;99.90;;;;;;5048564;28;20455;-82
2023/09/22 10:18:48;;;;;;;5.87;3.40;;;19.10;99.90;;;;;;5048307;28;20423;-83
2023/09/22 10:21:43;;;;;;;6.00;3.97;;;19.20;99.90;;;;;;5051480;28;20502;-83
2023/09/22 10:24:19;;;;;;;7.83;3.90;;;19.10;99.90;;;;;;5049383;28;20478;-81
2023/09/22 10:27:13;;;;;;;6.50;3.80;;;19.20;99.90;;;;;;5050439;28;20472;-83
2023/09/22 10:29:54;;;;;;;4.80;3.77;;;19.30;99.90;;;;;;5048784;28;20522;-83
2023/09/22 10:32:27;;;;;;;6.93;3.57;;;19.30;99.90;;;;;;5054308;28;20469;-83
2023/09/22 10:34:55;;;;;;;4.20;3.67;;;19.30;99.90;;;;;;5037286;28;20447;-84
2023/09/22 10:37:25;;;;;;;3.80;3.27;;;19.30;99.90;;;;;;5042918;28;20454;-83
2023/09/22 10:39:55;;;;;;;10.83;3.40;;;19.40;99.90;;;;;;5040003;28;20439;-83
2023/09/22 10:42:24;;;;;;;4.00;3.23;;;19.50;99.90;;;;;;5043508;28;20455;-83
2023/09/22 10:45:02;;;;;;;4.23;3.13;;;19.20;99.90;;;;;;5052149;28;20462;-83
2023/09/22 10:47:42;;;;;;;4.30;2.87;;;19.10;99.90;;;;;;5056260;28;20465;-82
2023/09/22 10:50:14;;;;;;;3.30;3.00;;;19.10;99.90;;;;;;5048381;28;20456;-84
2023/09/22 10:52:50;;;;;;;5.00;2.77;;;18.90;99.90;;;;;;5050867;28;20527;-84
2023/09/22 10:55:24;;;;;;;5.37;3.23;;;18.90;99.90;;;;;;5061661;28;20433;-82
2023/09/22 10:57:51;;;;;;;5.00;2.97;;;19.00;99.90;;;;;;5045091;28;20483;-83
2023/09/22 11:00:19;;;;;;;3.10;2.50;;;19.20;99.90;;;;;;5064628;28;20520;-84
2023/09/22 11:02:46;;;;;;;4.60;2.60;;;19.10;99.90;;;;;;5056619;28;20471;-82
2023/09/22 11:05:13;;;;;;;3.40;2.03;;;19.10;99.90;;;;;;5056781;28;20475;-83
2023/09/22 11:07:41;;;;;;;2.70;2.30;;;19.10;99.90;;;;;;5058700;28;20454;-82
2023/09/22 11:10:18;;;;;;;4.13;2.50;;;19.00;99.90;;;;;;5063621;28;20472;-81
2023/09/22 11:12:48;;;;;;;4.10;2.20;;;19.40;99.90;;;;;;5060401;28;20445;-79
2023/09/22 11:15:15;;;;;;;4.53;3.03;;;19.80;99.90;;;;;;5065796;28;20453;-83
2023/09/22 11:17:46;;;;;;;3.83;2.70;;;19.90;99.90;;;;;;5055120;28;20929;-79
2023/09/22 11:20:18;;;;;;;2.73;2.00;;;20.00;99.90;;;;;;5064998;28;20481;-82
2023/09/22 11:22:46;;;;;;;2.53;2.20;;;20.00;99.90;;;;;;5063999;28;20445;-82
2023/09/22 11:25:15;;;;;;;3.37;1.87;;;20.00;99.90;;;;;;5054973;28;20458;-84
2023/09/22 11:27:44;;;;;;;2.70;2.23;;;19.90;99.90;;;;;;5043711;28;20468;-84
2023/09/22 11:30:14;;;;;;;4.07;2.30;;;19.70;99.90;;;;;;5047527;28;20536;-84
2023/09/22 11:32:43;;;;;;;3.60;2.87;;;19.50;99.90;;;;;;5048263;28;20473;-81
2023/09/22 11:35:10;;;;;;;3.53;2.57;;;19.60;99.90;;;;;;5053229;28;20454;-82
2023/09/22 11:37:37;;;;;;;7.30;3.20;;;19.70;99.90;;;;;;5047177;28;20446;-83
2023/09/22 11:40:15;;;;;;;3.60;2.73;;;19.80;99.90;;;;;;5050691;28;20466;-83
2023/09/22 11:42:47;;;;;;;2.93;2.57;;;19.90;99.90;;;;;;5052160;28;20462;-83
2023/09/22 11:45:20;;;;;;;3.70;2.77;;;20.10;99.90;;;;;;5054400;28;20431;-83
2023/09/22 11:47:49;;;;;;;7.20;2.20;;;20.30;99.90;;;;;;5057538;28;20433;-83
2023/09/22 11:50:25;;;;;;;3.73;2.40;;;20.30;99.90;;;;;;5055962;28;20492;-85
2023/09/22 11:53:18;;;;;;;2.73;2.30;;;20.50;99.40;;;;;;5058140;28;20452;-86
2023/09/22 11:55:48;;;;;;;2.73;2.53;;;20.70;99.00;;;;;;5056129;28;20529;-83
2023/09/22 11:58:15;;;;;;;2.40;1.77;;;20.90;98.30;;;;;;5050734;28;20631;-82
2023/09/22 12:00:43;;;;;;;3.60;2.03;;;21.00;98.30;;;;;;5053132;28;20524;-83
2023/09/22 12:03:09;;;;;;;2.93;2.10;;;20.90;98.20;;;;;;5045295;28;20454;-79
2023/09/22 12:05:38;;;;;;;1.60;1.50;;;20.60;97.70;;;;;;5051149;28;20491;-85
2023/09/22 12:08:08;;;;;;;2.10;1.90;;;20.30;97.50;;;;;;5051186;28;20454;-85
2023/09/22 12:10:35;;;;;;;3.60;1.97;;;20.10;97.70;;;;;;5051751;28;20491;-83
2023/09/22 12:13:05;;;;;;;3.73;2.10;;;20.20;98.20;;;;;;5051822;28;20449;-84
2023/09/22 12:15:38;;;;;;;2.40;2.10;;;20.10;98.30;;;;;;5059501;28;20450;-83
2023/09/22 12:18:06;;;;;;;3.03;2.60;;;20.00;98.20;;;;;;5048424;28;20447;-84
2023/09/22 12:20:33;;;;;;;2.53;2.10;;;20.10;98.00;;;;;;5051480;28;20467;-83
2023/09/22 12:23:04;;;;;;;2.90;1.80;;;20.30;98.20;;;;;;5053407;28;20483;-85
2023/09/22 12:25:32;;;;;;;5.43;3.03;;;20.30;98.00;;;;;;5052086;28;20457;-83
2023/09/22 12:28:04;;;;;;;2.87;2.20;;;20.30;98.60;;;;;;5038875;28;20490;-84
2023/09/22 12:30:31;;;;;;;2.63;2.10;;;20.30;98.20;;;;;;5067262;22;20977;-73
2023/09/22 12:32:59;;;;;;;2.23;2.00;;;20.20;98.20;;;;;;5054617;28;20443;-73
2023/09/22 12:35:28;;;;;;;2.80;1.93;;;20.00;98.50;;;;;;5054086;28;20450;-74
2023/09/22 12:37:56;;;;;;;3.40;1.90;;;20.00;98.50;;;;;;5054372;28;20442;-73
2023/09/22 12:40:23;;;;;;;3.57;2.07;;;20.10;98.30;;;;;;5054526;28;20470;-72
2023/09/22 12:42:50;;;;;;;3.60;2.60;;;20.30;98.10;;;;;;5056031;28;20487;-75
2023/09/22 12:45:19;;;;;;;3.27;2.20;;;20.50;98.30;;;;;;5051478;28;20531;-75
2023/09/22 12:47:46;;;;;;;2.50;2.30;;;20.40;97.50;;;;;;5047105;28;20514;-75
2023/09/22 12:50:13;;;;;;;2.83;1.83;;;20.40;97.50;;;;;;5044170;28;20516;-75
2023/09/22 12:52:40;;;;;;;3.17;2.50;;;20.60;97.00;;;;;;5047941;28;20477;-73
2023/09/22 12:55:10;;;;;;;2.73;2.13;;;20.50;96.10;;;;;;5045125;28;20458;-72
2023/09/22 12:57:37;;;;;;;2.27;1.60;;;20.60;96.20;;;;;;5049692;28;20455;-74
2023/09/22 13:00:06;;;;;;;2.33;2.13;;;20.40;95.80;;;;;;5049776;28;21006;-75
2023/09/22 13:02:35;;;;;;;2.27;2.07;;;20.50;96.00;;;;;;5045238;28;20862;-74